createdAt,value
2022-12-01T06:44:11.184Z,63.57
2022-12-01T06:49:31.736Z,64.65
2022-12-01T06:52:01.267Z,64.92
2022-12-01T07:14:57.303Z,65.17
2022-12-01T07:17:50.616Z,64.69
2022-12-01T07:21:15.468Z,65.00
2022-12-01T07:23:52.524Z,65.61
2022-12-01T07:27:08.104Z,65.01
2022-12-01T07:36:14.735Z,64.71
2022-12-01T07:41:41.749Z,65.51
2022-12-01T07:54:37.110Z,64.00
2022-12-01T08:01:02.568Z,64.51
2022-12-01T08:07:19.652Z,63.71
2022-12-01T08:09:49.140Z,64.07
2022-12-01T08:12:36.458Z,63.91
2022-12-01T08:18:18.265Z,63.77
2022-12-01T08:20:45.216Z,63.34
2022-12-01T08:23:12.123Z,63.35
2022-12-01T08:47:20.792Z,61.77
2022-12-01T08:49:48.061Z,61.22
2022-12-01T08:52:15.143Z,61.36
2022-12-01T08:54:50.734Z,62.11
2022-12-01T08:57:17.504Z,61.92
2022-12-01T09:04:27.181Z,61.38
2022-12-01T09:07:13.771Z,61.16
2022-12-01T09:20:15.707Z,61.94
2022-12-01T09:31:10.532Z,60.05
2022-12-01T09:36:12.297Z,60.21
2022-12-01T09:39:36.601Z,60.49
2022-12-01T09:42:18.949Z,60.21
2022-12-01T09:45:39.566Z,59.89
2022-12-01T09:49:26.463Z,58.78
2022-12-01T09:50:43.636Z,59.51
2022-12-01T09:53:51.502Z,58.52
2022-12-01T09:56:26.193Z,58.57
2022-12-01T09:59:16.871Z,58.02
2022-12-01T10:02:27.755Z,58.89
2022-12-01T14:19:31.444Z,60.05
2022-12-01T14:22:32.790Z,59.72
2022-12-01T14:25:03.854Z,60.50
2022-12-01T14:27:43.903Z,59.75
2022-12-01T14:30:42.257Z,59.75
2022-12-01T14:33:51.793Z,59.81
2022-12-01T14:36:49.774Z,60.15
2022-12-01T14:39:36.431Z,61.06
2022-12-01T14:42:04.707Z,60.67
2022-12-01T14:44:49.801Z,60.76
2022-12-01T14:47:29.629Z,61.34
2022-12-01T14:50:15.699Z,61.44
2022-12-01T14:52:50.036Z,61.55
2022-12-01T14:55:24.908Z,61.61
2022-12-01T14:57:59.681Z,61.80
2022-12-01T15:00:26.891Z,60.97
2022-12-01T15:03:01.922Z,60.70
2022-12-01T15:05:31.192Z,60.87
2022-12-01T15:08:25.579Z,61.22
2022-12-01T15:11:24.463Z,60.81
2022-12-01T15:13:58.478Z,60.96
2022-12-01T15:16:39.749Z,61.96
2022-12-01T15:23:19.555Z,62.17
2022-12-01T15:25:48.722Z,62.04
2022-12-01T15:28:22.895Z,61.91
2022-12-01T15:30:54.047Z,62.07
2022-12-01T15:36:38.672Z,62.73
2022-12-01T15:39:16.917Z,63.05
2022-12-01T15:41:51.797Z,63.25
2022-12-01T15:44:32.962Z,63.13
2022-12-01T15:47:00.505Z,63.66
2022-12-01T15:49:32.877Z,63.49
2022-12-01T15:52:08.889Z,63.71
2022-12-01T15:54:42.019Z,63.38
2022-12-01T15:57:18.636Z,63.36
2022-12-01T15:59:47.256Z,63.52
2022-12-01T16:26:38.926Z,64.32
2022-12-01T16:29:19.794Z,64.66
2022-12-01T16:32:12.481Z,64.59
2022-12-01T16:34:46.381Z,64.97
2022-12-01T16:41:18.277Z,64.14
2022-12-01T16:44:05.356Z,63.65
2022-12-01T16:46:32.242Z,63.56
2022-12-01T16:49:00.135Z,63.96
2022-12-01T16:51:35.544Z,64.26
2022-12-01T16:54:09.750Z,64.90
2022-12-01T16:56:36.687Z,64.56
2022-12-01T16:59:05.476Z,65.07
2022-12-01T17:01:36.053Z,65.46
2022-12-01T17:04:17.061Z,65.30
2022-12-01T17:06:45.739Z,65.32
2022-12-01T17:09:14.374Z,65.58
2022-12-01T17:12:01.833Z,65.31
2022-12-01T17:14:33.998Z,66.93
2022-12-01T17:17:02.916Z,66.62
2022-12-01T17:19:29.979Z,67.06
2022-12-01T17:21:59.317Z,66.52
2022-12-01T17:24:29.524Z,66.03
2022-12-01T17:27:06.623Z,66.88
2022-12-01T17:29:33.792Z,67.39
2022-12-01T17:32:01.592Z,67.21
2022-12-01T17:34:36.359Z,66.64
2022-12-01T17:37:04.261Z,65.78
2022-12-01T17:39:32.977Z,65.84
2022-12-01T17:42:01.032Z,66.37
2022-12-01T17:44:28.587Z,66.32
2022-12-01T17:46:58.309Z,66.94
2022-12-01T17:49:46.429Z,66.95
2022-12-01T17:52:21.293Z,67.08
2022-12-01T17:54:52.026Z,66.38
2022-12-01T17:57:20.890Z,67.19
2022-12-01T17:59:49.106Z,66.51
2022-12-01T18:02:24.972Z,66.47
2022-12-01T18:04:56.806Z,66.21
2022-12-01T18:07:24.491Z,66.03
2022-12-01T18:09:53.021Z,66.49
2022-12-01T18:12:20.489Z,66.17
2022-12-01T18:14:53.211Z,66.47
2022-12-01T18:17:25.804Z,65.41
2022-12-01T18:20:10.177Z,65.91
2022-12-01T18:25:27.688Z,66.80
2022-12-01T18:27:55.885Z,66.04
2022-12-01T18:30:22.900Z,66.88
2022-12-01T18:32:51.087Z,65.87
2022-12-01T18:35:17.952Z,65.56
2022-12-01T18:37:46.417Z,65.88
2022-12-01T18:40:18.312Z,65.81
2022-12-01T18:42:46.421Z,66.00
2022-12-01T18:45:21.070Z,66.18
2022-12-01T18:47:48.809Z,66.16
2022-12-01T18:50:17.287Z,66.06
2022-12-01T18:52:44.466Z,66.54
2022-12-01T18:55:11.905Z,66.88
2022-12-01T18:57:40.050Z,66.61
2022-12-01T19:00:24.907Z,67.62
2022-12-01T19:02:57.788Z,67.35
2022-12-01T19:05:27.736Z,67.08
2022-12-01T19:07:57.405Z,67.47
2022-12-01T19:10:27.302Z,67.14
2022-12-01T19:12:54.634Z,66.67
2022-12-01T19:15:25.042Z,66.42
2022-12-01T19:17:51.949Z,66.78
2022-12-01T19:20:19.856Z,66.98
2022-12-01T19:22:47.832Z,67.34
2022-12-01T19:25:15.883Z,67.69
2022-12-01T19:27:44.590Z,67.52
2022-12-01T19:30:13.443Z,66.93
2022-12-01T19:32:43.160Z,67.01
2022-12-01T19:35:10.317Z,67.14
2022-12-01T19:37:37.848Z,66.16
2022-12-01T19:40:06.191Z,66.80
2022-12-01T19:42:33.503Z,66.82
2022-12-01T19:45:03.207Z,66.66
2022-12-01T19:47:33.695Z,66.39
2022-12-01T19:50:01.105Z,66.27
2022-12-01T19:52:29.250Z,66.16
2022-12-01T19:54:56.127Z,66.12
2022-12-01T19:57:29.004Z,66.29
2022-12-01T19:59:56.499Z,65.45
2022-12-01T20:02:29.651Z,65.48
2022-12-01T20:04:57.426Z,66.07
2022-12-01T20:11:19.479Z,65.98
2022-12-01T20:13:52.361Z,65.66
2022-12-01T20:16:22.256Z,65.22
2022-12-01T20:18:49.668Z,65.91
2022-12-01T20:21:24.497Z,65.37
2022-12-01T20:23:59.352Z,65.60
2022-12-01T20:26:31.615Z,65.74
2022-12-01T20:29:24.497Z,65.87
2022-12-01T20:31:52.260Z,65.56
2022-12-01T20:34:24.750Z,65.93
2022-12-01T20:36:52.144Z,65.76
2022-12-01T20:39:22.986Z,65.91
2022-12-01T20:41:50.209Z,66.11
2022-12-01T20:44:17.853Z,65.86
2022-12-01T20:46:46.132Z,65.49
2022-12-01T20:49:13.035Z,66.08
2022-12-01T20:51:40.757Z,65.46
2022-12-01T20:56:55.764Z,65.57
2022-12-01T20:59:22.855Z,66.11
2022-12-01T21:01:49.666Z,65.67
2022-12-01T21:04:16.814Z,66.06
2022-12-01T21:06:44.532Z,65.55
2022-12-01T21:09:38.183Z,64.89
2022-12-01T21:12:11.483Z,65.04
2022-12-01T21:14:44.747Z,64.72
2022-12-01T21:17:43.878Z,64.54
2022-12-01T21:20:14.639Z,63.77
2022-12-01T21:22:46.464Z,64.62
2022-12-01T21:25:14.475Z,64.46
2022-12-01T21:27:42.741Z,64.62
2022-12-01T21:30:22.896Z,64.44
2022-12-01T21:32:51.167Z,64.60
2022-12-01T21:35:27.918Z,63.83
2022-12-01T21:37:59.133Z,63.06
2022-12-01T21:40:26.069Z,64.31
2022-12-01T21:42:53.636Z,63.52
2022-12-01T21:45:27.961Z,63.73
2022-12-01T21:47:58.553Z,62.84
2022-12-01T21:50:26.330Z,62.57
2022-12-01T21:52:53.059Z,63.68
2022-12-01T21:55:20.749Z,62.82
2022-12-01T21:57:49.044Z,62.56
2022-12-01T22:00:28.426Z,62.73
2022-12-01T22:03:16.349Z,62.90
2022-12-01T22:06:01.167Z,62.99
2022-12-01T22:08:58.579Z,62.63
2022-12-01T22:11:30.142Z,62.39
2022-12-01T22:14:15.976Z,63.46
2022-12-01T22:16:44.461Z,62.63
2022-12-01T22:19:25.532Z,62.03
2022-12-01T22:22:02.417Z,62.38
2022-12-01T22:24:35.043Z,62.49
2022-12-01T22:27:27.911Z,62.57
2022-12-01T22:30:19.116Z,62.41
2022-12-01T22:32:46.046Z,62.41
2022-12-01T22:35:22.100Z,62.33
2022-12-01T22:37:55.776Z,62.72
2022-12-01T22:40:37.728Z,61.78
2022-12-01T22:43:15.290Z,61.48
2022-12-01T22:46:02.959Z,61.43
2022-12-01T22:48:39.873Z,60.88
2022-12-01T22:51:21.472Z,61.34
2022-12-01T22:54:00.124Z,61.49
2022-12-01T22:56:31.167Z,60.99
2022-12-01T22:58:58.465Z,60.73
2022-12-01T23:01:31.615Z,60.76
2022-12-01T23:04:19.484Z,60.72
2022-12-01T23:06:53.037Z,61.27
2022-12-01T23:09:20.634Z,60.65
2022-12-01T23:12:00.496Z,60.86
2022-12-01T23:14:27.971Z,60.85
2022-12-01T23:17:19.686Z,60.23
2022-12-01T23:19:48.011Z,60.07
2022-12-01T23:22:15.565Z,59.51
2022-12-01T23:24:48.982Z,60.24
2022-12-01T23:27:16.224Z,60.00
2022-12-01T23:29:42.946Z,60.04
2022-12-01T23:32:10.582Z,59.79
2022-12-01T23:34:38.977Z,60.31
2022-12-01T23:37:14.982Z,60.15
2022-12-01T23:39:42.105Z,60.58
2022-12-01T23:42:09.176Z,60.24
2022-12-01T23:44:39.052Z,60.70
2022-12-01T23:47:12.585Z,60.26
2022-12-01T23:49:39.329Z,60.36
2022-12-01T23:52:06.544Z,60.16
2022-12-01T23:54:34.662Z,60.01
2022-12-01T23:57:07.127Z,59.63
2022-12-01T23:59:34.213Z,59.91
